Del Bonita, Montana
Current Conditions -  °F | °C
As of 8:56 AM on Thursday 23 Oct 2014 (Local Time) from KCTB Reporting Station
Broken Clouds Broken Clouds  
Wind Chill: 47°   Ceiling: 5500
Heat Index: 49°   Visibility: 10mi
Dew Point: 38°   Wind: 6mph
Humidity: 66%   Direction: 280°W
Pressure: 29.77"   Gusts: NA
Location:  48.808°N, 112.487°W
Report Text: KCTB 231456Z AUTO 28005KT 10SM BKN055 09/03 A2977 RMK AO2 SLP076 T00940033 53009
Loading
Personal Weather Stations






























Interactive Weather Map
Tropical Storm Tracking
New forecast layout! Learn more

10-Day Weather Forecast

Advertisements
Track Severe Weather on mobile